createdAt,value
2019-04-22T00:01:36.853Z,8.90
2019-04-22T00:04:13.575Z,8.90
2019-04-22T00:07:03.146Z,8.90
2019-04-22T00:09:41.798Z,8.90
2019-04-22T00:12:16.629Z,8.90
2019-04-22T00:14:35.075Z,8.80
2019-04-22T00:17:16.664Z,8.80
2019-04-22T00:19:45.595Z,8.80
2019-04-22T00:22:15.396Z,8.70
2019-04-22T00:24:44.570Z,8.60
2019-04-22T00:27:20.215Z,8.60
2019-04-22T00:29:59.904Z,8.60
2019-04-22T00:32:19.870Z,8.50
2019-04-22T00:34:59.320Z,8.60
2019-04-22T00:37:28.572Z,8.60
2019-04-22T00:40:03.150Z,8.60
2019-04-22T00:42:34.735Z,8.70
2019-04-22T00:45:07.986Z,8.70
2019-04-22T00:50:23.777Z,8.60
2019-04-22T00:52:40.368Z,8.60
2019-04-22T00:55:12.379Z,8.70
2019-04-22T00:57:41.545Z,8.70
2019-04-22T01:00:11.979Z,8.60
2019-04-22T01:02:49.489Z,8.60
2019-04-22T01:07:46.443Z,8.70
2019-04-22T01:10:18.834Z,8.70
2019-04-22T01:12:51.299Z,8.70
2019-04-22T01:15:23.617Z,8.70
2019-04-22T01:17:53.007Z,8.60
2019-04-22T01:20:52.397Z,8.50
2019-04-22T01:22:51.886Z,8.50
2019-04-22T01:25:21.200Z,8.50
2019-04-22T01:27:50.273Z,8.50
2019-04-22T01:30:17.422Z,8.40
2019-04-22T01:32:41.822Z,8.30
2019-04-22T01:35:26.429Z,8.30
2019-04-22T01:37:54.197Z,8.20
2019-04-22T01:40:38.563Z,8.10
2019-04-22T01:43:09.567Z,8.00
2019-04-22T01:45:39.326Z,8.00
2019-04-22T01:48:16.144Z,7.90
2019-04-22T01:50:44.308Z,7.90
2019-04-22T01:53:24.665Z,7.90
2019-04-22T01:55:55.536Z,7.90
2019-04-22T01:58:11.212Z,8.00
2019-04-22T02:00:53.477Z,8.10
2019-04-22T02:03:25.737Z,8.00
2019-04-22T02:05:52.164Z,7.90
2019-04-22T02:08:33.343Z,7.90
2019-04-22T02:10:54.848Z,7.80
2019-04-22T02:13:29.038Z,7.90
2019-04-22T02:15:58.772Z,7.90
2019-04-22T02:18:35.412Z,7.80
2019-04-22T02:20:54.919Z,7.80
2019-04-22T02:31:25.992Z,7.90
2019-04-22T02:36:23.019Z,7.90
2019-04-22T02:46:34.877Z,7.80
2019-04-22T02:56:31.541Z,7.70
2019-04-22T02:59:03.896Z,7.60
2019-04-22T03:16:40.758Z,7.80
2019-04-22T03:21:44.686Z,7.90
2019-04-22T03:24:25.573Z,8.00
2019-04-22T03:26:43.322Z,7.90
2019-04-22T03:29:11.153Z,8.00
2019-04-22T03:42:06.388Z,8.40
2019-04-22T03:47:12.064Z,8.70
2019-04-22T03:54:39.994Z,8.80
2019-04-22T03:57:26.545Z,8.80
2019-04-22T04:02:21.422Z,8.70
2019-04-22T04:04:37.123Z,8.60
2019-04-22T04:07:20.152Z,8.60
2019-04-22T04:12:21.100Z,8.70
2019-04-22T04:17:20.260Z,8.70
2019-04-22T04:20:05.858Z,8.80
2019-04-22T04:22:30.489Z,8.70
2019-04-22T04:25:08.863Z,8.70
2019-04-22T04:32:36.450Z,8.70
2019-04-22T04:40:11.645Z,8.70
2019-04-22T04:52:50.843Z,8.90
2019-04-22T04:55:18.068Z,9.00
2019-04-22T05:02:48.915Z,9.30
2019-04-22T05:05:17.664Z,9.30
2019-04-22T05:07:48.325Z,9.40
2019-04-22T05:10:31.378Z,9.40
2019-04-22T05:17:55.100Z,9.80
2019-04-22T05:20:26.659Z,9.80
2019-04-22T05:22:59.430Z,9.90
2019-04-22T05:25:19.017Z,10.00
2019-04-22T05:27:47.161Z,10.10
2019-04-22T05:30:32.410Z,10.20
2019-04-22T05:33:02.971Z,10.20
2019-04-22T05:37:58.043Z,10.40
2019-04-22T05:42:56.467Z,10.60
2019-04-22T05:45:25.443Z,10.70
2019-04-22T05:47:59.276Z,10.80
2019-04-22T05:50:27.207Z,10.80
2019-04-22T05:53:20.778Z,10.90
2019-04-22T05:55:43.297Z,11.00
2019-04-22T05:58:10.394Z,11.10
2019-04-22T06:01:12.785Z,11.20
2019-04-22T06:03:11.951Z,11.30
2019-04-22T06:05:47.250Z,11.40
2019-04-22T06:08:17.102Z,11.40
2019-04-22T06:13:12.079Z,11.60
2019-04-22T06:15:49.162Z,11.70
2019-04-22T06:18:27.549Z,11.80
2019-04-22T06:20:59.397Z,11.90
2019-04-22T06:23:35.286Z,12.00
2019-04-22T06:26:10.032Z,12.10
2019-04-22T06:28:35.274Z,12.20
2019-04-22T06:31:06.631Z,12.20
2019-04-22T06:33:34.696Z,12.30
2019-04-22T06:36:03.407Z,12.40
2019-04-22T06:38:34.070Z,12.50
2019-04-22T06:41:09.135Z,12.60
2019-04-22T06:43:47.543Z,12.60
2019-04-22T06:46:09.876Z,12.80
2019-04-22T06:48:36.043Z,12.90
2019-04-22T06:51:09.438Z,13.00
2019-04-22T06:53:40.571Z,13.00
2019-04-22T06:56:12.669Z,13.10
2019-04-22T06:58:50.637Z,13.20
2019-04-22T07:01:19.329Z,13.20
2019-04-22T07:03:52.352Z,13.50
2019-04-22T07:06:20.052Z,13.60
2019-04-22T07:11:18.986Z,13.80
2019-04-22T07:13:49.831Z,13.90
2019-04-22T07:16:30.253Z,14.00
2019-04-22T07:21:27.471Z,14.10
2019-04-22T07:26:31.859Z,14.30
2019-04-22T07:28:58.265Z,14.30
2019-04-22T07:31:28.890Z,14.40
2019-04-22T07:34:03.808Z,14.40
2019-04-22T07:36:50.642Z,14.50
2019-04-22T07:39:03.996Z,14.60
2019-04-22T07:41:33.141Z,14.70
2019-04-22T07:44:13.099Z,14.80
2019-04-22T07:46:43.185Z,14.80
2019-04-22T07:49:13.236Z,14.90
2019-04-22T07:51:36.347Z,15.00
2019-04-22T07:54:07.558Z,15.10
2019-04-22T07:56:43.938Z,15.20
2019-04-22T07:59:18.478Z,15.30
2019-04-22T08:01:47.146Z,15.30
2019-04-22T08:04:24.382Z,15.40
2019-04-22T08:06:54.954Z,15.50
2019-04-22T08:09:30.950Z,15.70
2019-04-22T08:12:04.135Z,15.90
2019-04-22T08:14:31.265Z,15.90
2019-04-22T08:17:01.457Z,15.90
2019-04-22T08:19:28.717Z,16.10
2019-04-22T08:22:02.877Z,16.30
2019-04-22T08:24:35.993Z,16.30
2019-04-22T08:27:04.517Z,16.40
2019-04-22T08:29:37.706Z,16.40
2019-04-22T08:32:06.450Z,16.50
2019-04-22T08:34:47.381Z,16.60
2019-04-22T08:37:37.045Z,16.70
2019-04-22T08:39:40.916Z,16.80
2019-04-22T08:42:20.505Z,16.90
2019-04-22T08:45:01.122Z,16.90
2019-04-22T08:47:21.522Z,17.00
2019-04-22T08:49:50.466Z,17.10
2019-04-22T08:52:16.301Z,17.20
2019-04-22T08:54:50.498Z,17.20
2019-04-22T08:57:24.509Z,17.50
2019-04-22T08:59:50.204Z,17.70
2019-04-22T09:02:25.960Z,17.70
2019-04-22T09:04:51.758Z,17.80
2019-04-22T09:07:41.379Z,18.00
2019-04-22T09:10:00.048Z,18.10
2019-04-22T09:12:37.069Z,18.30
2019-04-22T09:14:49.254Z,18.50
2019-04-22T09:17:28.372Z,18.40
2019-04-22T09:20:00.250Z,18.40
2019-04-22T09:22:47.269Z,18.50
2019-04-22T09:25:03.767Z,18.50
2019-04-22T09:27:39.923Z,18.60
2019-04-22T09:30:10.317Z,18.80
2019-04-22T09:35:11.471Z,19.00
2019-04-22T09:42:44.050Z,19.50
2019-04-22T09:45:10.239Z,19.50
2019-04-22T09:47:53.623Z,19.60
2019-04-22T09:50:15.257Z,19.90
2019-04-22T09:52:43.649Z,20.00
2019-04-22T09:55:18.237Z,20.00
2019-04-22T09:57:52.354Z,20.10
2019-04-22T10:00:20.872Z,20.40
2019-04-22T10:03:00.924Z,20.30
2019-04-22T10:05:27.418Z,20.50
2019-04-22T10:07:59.378Z,20.50
2019-04-22T10:10:26.841Z,20.70
2019-04-22T10:12:54.019Z,20.60
2019-04-22T10:15:33.321Z,20.60
2019-04-22T10:18:02.711Z,20.80
2019-04-22T10:20:31.447Z,20.80
2019-04-22T10:23:05.870Z,21.00
2019-04-22T10:25:39.783Z,20.90
2019-04-22T10:28:08.909Z,21.00
2019-04-22T10:30:44.579Z,20.90
2019-04-22T10:33:04.665Z,21.10
2019-04-22T10:35:20.989Z,21.40
2019-04-22T10:37:48.560Z,21.30
2019-04-22T10:40:29.548Z,21.40
2019-04-22T10:42:59.450Z,21.20
2019-04-22T10:45:30.360Z,21.40
2019-04-22T10:48:01.373Z,21.50
2019-04-22T10:50:46.424Z,21.40
2019-04-22T10:53:17.841Z,21.60
2019-04-22T10:55:49.327Z,21.70
2019-04-22T10:58:18.772Z,21.70
2019-04-22T11:00:50.205Z,21.90
2019-04-22T11:03:20.284Z,21.90
2019-04-22T11:05:50.578Z,21.70
2019-04-22T11:08:28.501Z,21.80
2019-04-22T11:11:07.109Z,21.70
2019-04-22T11:13:24.151Z,21.80
2019-04-22T11:15:55.015Z,22.00
2019-04-22T11:18:25.355Z,22.10
2019-04-22T11:20:55.771Z,22.00
2019-04-22T11:23:26.894Z,22.10
2019-04-22T11:25:57.653Z,22.20
2019-04-22T11:28:27.770Z,22.40
2019-04-22T11:30:58.705Z,22.30
2019-04-22T11:33:28.376Z,22.30
2019-04-22T11:35:57.880Z,22.30
2019-04-22T11:38:28.724Z,22.20
2019-04-22T11:41:03.106Z,22.40
2019-04-22T11:43:32.332Z,22.70
2019-04-22T11:46:03.246Z,22.90
2019-04-22T11:48:33.985Z,22.70
2019-04-22T11:51:04.402Z,22.60
2019-04-22T11:53:34.588Z,22.50
2019-04-22T11:56:04.732Z,22.70
2019-04-22T11:58:35.376Z,22.70
2019-04-22T12:01:06.618Z,22.80
2019-04-22T12:03:38.009Z,22.60
2019-04-22T12:06:08.420Z,22.80
2019-04-22T12:08:39.573Z,22.80
2019-04-22T12:11:11.596Z,23.20
2019-04-22T12:13:42.214Z,22.90
2019-04-22T12:16:11.811Z,22.90
2019-04-22T12:18:42.981Z,23.10
2019-04-22T12:21:15.156Z,23.00
2019-04-22T12:23:45.220Z,22.90
2019-04-22T12:26:18.890Z,22.90
2019-04-22T12:28:46.839Z,23.00
2019-04-22T12:31:17.664Z,23.30
2019-04-22T12:33:47.650Z,23.20
2019-04-22T12:36:20.282Z,23.10
2019-04-22T12:38:49.818Z,23.10
2019-04-22T12:41:19.764Z,23.20
2019-04-22T12:43:49.619Z,23.00
2019-04-22T12:46:20.381Z,23.20
2019-04-22T12:48:50.039Z,23.20
2019-04-22T12:51:20.830Z,23.30
2019-04-22T12:53:50.925Z,23.40
2019-04-22T12:56:21.764Z,23.70
2019-04-22T12:58:51.784Z,23.40
2019-04-22T13:01:21.541Z,23.30
2019-04-22T13:03:52.079Z,23.20
2019-04-22T13:06:21.828Z,23.20
2019-04-22T13:08:52.433Z,23.10
2019-04-22T13:11:28.173Z,23.10
2019-04-22T13:13:54.656Z,23.30
2019-04-22T13:16:25.019Z,23.10
2019-04-22T13:19:00.155Z,23.10
2019-04-22T13:21:26.770Z,23.10
2019-04-22T13:23:57.107Z,23.10
2019-04-22T13:26:27.160Z,23.10
2019-04-22T13:28:57.039Z,22.90
2019-04-22T13:31:26.883Z,22.90
2019-04-22T13:33:59.733Z,23.10
2019-04-22T13:36:29.747Z,23.20
2019-04-22T13:39:00.425Z,23.20
2019-04-22T13:41:39.594Z,23.30
2019-04-22T13:44:02.014Z,23.50
2019-04-22T13:46:33.635Z,23.40
2019-04-22T13:49:38.272Z,23.50
2019-04-22T13:57:00.683Z,23.70
2019-04-22T13:59:18.309Z,24.00
2019-04-22T14:01:50.738Z,24.00
2019-04-22T14:04:24.793Z,23.90
2019-04-22T14:06:54.612Z,23.80
2019-04-22T14:09:24.492Z,23.70
2019-04-22T14:11:58.275Z,23.80
2019-04-22T14:14:25.977Z,23.70
2019-04-22T14:16:55.664Z,23.70
2019-04-22T14:19:25.999Z,23.80
2019-04-22T14:21:55.738Z,23.90
2019-04-22T14:24:25.977Z,24.20
2019-04-22T14:27:13.261Z,24.10
2019-04-22T14:29:26.639Z,24.00
2019-04-22T14:34:28.550Z,23.70
2019-04-22T14:37:01.398Z,23.70
2019-04-22T14:39:31.444Z,24.00
2019-04-22T14:42:27.033Z,23.50
2019-04-22T14:44:36.833Z,23.60
2019-04-22T14:47:25.747Z,23.70
2019-04-22T14:49:52.825Z,23.70
2019-04-22T14:52:30.697Z,23.80
2019-04-22T14:54:51.818Z,23.60
2019-04-22T14:57:10.857Z,24.00
2019-04-22T14:59:41.700Z,23.80
2019-04-22T15:02:12.250Z,23.70
2019-04-22T15:04:43.015Z,23.90
2019-04-22T15:07:12.804Z,24.00
2019-04-22T15:09:44.033Z,23.80
2019-04-22T15:12:20.596Z,23.80
2019-04-22T15:14:45.781Z,23.70
2019-04-22T15:17:18.588Z,23.50
2019-04-22T15:19:58.599Z,23.60
2019-04-22T15:22:28.439Z,23.50
2019-04-22T15:24:58.600Z,23.50
2019-04-22T15:27:30.941Z,23.30
2019-04-22T15:29:59.300Z,23.30
2019-04-22T15:32:29.560Z,23.50
2019-04-22T15:34:59.580Z,23.40
2019-04-22T15:37:43.304Z,23.50
2019-04-22T15:40:13.599Z,23.30
2019-04-22T15:42:44.929Z,23.70
2019-04-22T15:45:16.592Z,23.30
2019-04-22T15:47:46.242Z,23.40
2019-04-22T15:50:18.879Z,23.30
2019-04-22T15:52:53.044Z,23.20
2019-04-22T15:55:20.737Z,23.20
2019-04-22T15:57:50.286Z,23.30
2019-04-22T16:00:33.155Z,23.10
2019-04-22T16:02:51.989Z,23.20
2019-04-22T16:05:22.528Z,23.00
2019-04-22T16:07:53.030Z,22.90
2019-04-22T16:10:23.949Z,22.90
2019-04-22T16:13:03.463Z,23.00
2019-04-22T16:15:24.814Z,23.10
2019-04-22T16:17:54.975Z,22.90
2019-04-22T16:20:25.878Z,23.00
2019-04-22T16:23:07.747Z,23.00
2019-04-22T16:25:45.344Z,23.10
2019-04-22T16:28:17.312Z,22.90
2019-04-22T16:30:47.083Z,22.70
2019-04-22T16:33:17.290Z,22.90
2019-04-22T16:35:48.802Z,22.70
2019-04-22T16:38:19.167Z,22.60
2019-04-22T16:40:48.896Z,22.60
2019-04-22T16:43:19.483Z,22.50
2019-04-22T16:45:49.677Z,22.60
2019-04-22T16:48:19.843Z,22.50
2019-04-22T16:50:52.230Z,22.50
2019-04-22T16:53:20.895Z,22.20
2019-04-22T16:55:50.831Z,22.30
2019-04-22T16:58:20.845Z,21.90
2019-04-22T17:00:50.385Z,21.80
2019-04-22T17:03:28.956Z,21.80
2019-04-22T17:06:12.124Z,21.50
2019-04-22T17:08:42.565Z,21.40
2019-04-22T17:11:13.852Z,21.30
2019-04-22T17:13:44.552Z,21.20
2019-04-22T17:16:16.018Z,21.00
2019-04-22T17:18:47.136Z,20.90
2019-04-22T17:21:17.580Z,20.70
2019-04-22T17:23:47.573Z,20.70
2019-04-22T17:26:18.750Z,20.40
2019-04-22T17:28:49.341Z,20.20
2019-04-22T17:31:20.630Z,20.10
2019-04-22T17:33:50.794Z,19.80
2019-04-22T17:36:20.591Z,19.30
2019-04-22T17:38:58.384Z,19.00
2019-04-22T17:41:34.406Z,18.70
2019-04-22T17:44:18.581Z,18.50
2019-04-22T17:46:48.356Z,18.40
2019-04-22T17:49:50.568Z,18.30
2019-04-22T17:57:22.385Z,18.10
2019-04-22T17:59:50.605Z,18.10
2019-04-22T18:02:24.993Z,18.10
2019-04-22T18:04:42.896Z,18.00
2019-04-22T18:10:24.266Z,17.70
2019-04-22T18:12:39.801Z,17.70
2019-04-22T18:15:04.052Z,17.50
2019-04-22T18:17:37.345Z,17.40
2019-04-22T18:20:02.671Z,17.30
2019-04-22T18:22:24.500Z,17.30
2019-04-22T18:24:58.414Z,17.10
2019-04-22T18:30:03.909Z,17.00
2019-04-22T18:32:38.041Z,17.00
2019-04-22T18:35:11.751Z,16.90
2019-04-22T18:37:46.998Z,16.90
2019-04-22T18:40:15.861Z,16.90
2019-04-22T18:42:49.433Z,16.90
2019-04-22T18:45:29.617Z,16.80
2019-04-22T18:47:44.212Z,16.70
2019-04-22T18:50:21.819Z,16.60
2019-04-22T18:52:54.563Z,16.50
2019-04-22T18:55:34.021Z,16.40
2019-04-22T18:58:08.924Z,16.30
2019-04-22T19:00:34.220Z,16.10
2019-04-22T19:03:13.491Z,15.90
2019-04-22T19:06:02.628Z,15.70
2019-04-22T19:08:33.354Z,15.60
2019-04-22T19:11:08.145Z,15.70
2019-04-22T19:16:21.065Z,15.70
2019-04-22T19:18:41.852Z,15.70
2019-04-22T19:21:15.078Z,15.60
2019-04-22T19:23:54.070Z,15.60
2019-04-22T19:26:36.608Z,15.50
2019-04-22T19:28:54.425Z,15.50
2019-04-22T19:31:25.032Z,15.50
2019-04-22T19:34:00.757Z,15.30
2019-04-22T19:36:26.175Z,15.20
2019-04-22T19:39:02.928Z,15.00
2019-04-22T19:41:30.590Z,14.90
2019-04-22T19:44:05.559Z,14.70
2019-04-22T19:46:33.255Z,14.70
2019-04-22T19:49:12.030Z,14.60
2019-04-22T19:51:47.636Z,14.40
2019-04-22T19:54:07.675Z,14.40
2019-04-22T19:56:33.729Z,14.30
2019-04-22T19:59:06.338Z,14.30
2019-04-22T20:01:49.272Z,14.30
2019-04-22T20:04:41.703Z,14.50
2019-04-22T20:06:59.117Z,14.50
2019-04-22T20:09:39.858Z,14.50
2019-04-22T20:12:02.831Z,14.50
2019-04-22T20:14:35.780Z,14.50
2019-04-22T20:17:00.471Z,14.50
2019-04-22T20:19:48.066Z,14.40
2019-04-22T20:22:09.592Z,14.40
2019-04-22T20:24:27.654Z,14.30
2019-04-22T20:27:13.591Z,14.30
2019-04-22T20:29:41.721Z,14.30
2019-04-22T20:32:12.326Z,14.30
2019-04-22T20:34:44.055Z,14.30
2019-04-22T20:37:28.544Z,14.20
2019-04-22T20:39:50.260Z,14.10
2019-04-22T20:42:31.102Z,14.10
2019-04-22T20:44:52.031Z,14.10
2019-04-22T20:47:16.487Z,14.00
2019-04-22T20:49:54.588Z,14.00
2019-04-22T20:52:33.122Z,14.00
2019-04-22T20:54:50.957Z,13.80
2019-04-22T20:57:25.471Z,13.70
2019-04-22T20:59:52.203Z,13.60
2019-04-22T21:02:23.887Z,13.50
2019-04-22T21:04:43.176Z,13.40
2019-04-22T21:07:26.783Z,13.20
2019-04-22T21:09:59.404Z,13.20
2019-04-22T21:12:22.407Z,13.10
2019-04-22T21:15:06.790Z,13.20
2019-04-22T21:17:34.800Z,13.30
2019-04-22T21:20:15.575Z,13.30
2019-04-22T21:22:40.445Z,13.40
2019-04-22T21:25:02.381Z,13.40
2019-04-22T21:27:45.352Z,13.40
2019-04-22T21:30:03.318Z,13.30
2019-04-22T21:32:39.101Z,13.20
2019-04-22T21:35:17.832Z,13.20
2019-04-22T21:37:43.121Z,13.20
2019-04-22T21:40:17.884Z,13.20
2019-04-22T21:42:48.617Z,13.30
2019-04-22T21:45:16.668Z,13.30
2019-04-22T21:47:58.849Z,13.20
2019-04-22T21:50:35.661Z,13.20
2019-04-22T21:52:56.922Z,13.20
2019-04-22T21:55:23.710Z,13.10
2019-04-22T21:58:05.273Z,13.10
2019-04-22T22:03:10.888Z,13.00
2019-04-22T22:05:28.649Z,12.90
2019-04-22T22:07:55.836Z,12.90
2019-04-22T22:10:41.804Z,13.10
2019-04-22T22:13:10.992Z,13.00
2019-04-22T22:15:42.229Z,12.90
2019-04-22T22:18:09.726Z,13.00
2019-04-22T22:20:52.407Z,13.00
2019-04-22T22:23:22.254Z,13.20
2019-04-22T22:25:46.802Z,13.10
2019-04-22T22:28:38.305Z,13.10
2019-04-22T22:30:58.246Z,13.20
2019-04-22T22:33:17.393Z,13.20
2019-04-22T22:35:45.766Z,13.20
2019-04-22T22:38:19.599Z,13.10
2019-04-22T22:40:35.893Z,13.10
2019-04-22T22:43:11.776Z,13.00
2019-04-22T22:45:43.802Z,13.00
2019-04-22T22:50:52.148Z,12.90
2019-04-22T22:53:36.854Z,13.00
2019-04-22T22:55:57.692Z,13.00
2019-04-22T22:58:34.860Z,13.00
2019-04-22T23:00:59.500Z,13.00
2019-04-22T23:06:12.817Z,13.00
2019-04-22T23:08:39.921Z,13.00
2019-04-22T23:11:16.981Z,13.10
2019-04-22T23:13:38.677Z,13.20
2019-04-22T23:16:00.946Z,13.20
2019-04-22T23:18:19.863Z,13.30
2019-04-22T23:20:51.773Z,13.30
2019-04-22T23:23:40.870Z,13.20
2019-04-22T23:26:10.308Z,13.10
2019-04-22T23:28:40.098Z,12.90
2019-04-22T23:31:21.146Z,12.70
2019-04-22T23:34:00.956Z,12.80
2019-04-22T23:36:54.522Z,12.80
2019-04-22T23:39:37.277Z,12.90
2019-04-22T23:42:18.906Z,12.90
2019-04-22T23:44:35.020Z,12.80
2019-04-22T23:47:02.017Z,12.70
2019-04-22T23:49:30.256Z,12.60
2019-04-22T23:52:09.038Z,12.50
2019-04-22T23:54:48.554Z,12.30
2019-04-22T23:57:03.424Z,12.10
